createdAt,value
2018-12-29T00:01:54.829Z,38.60
2018-12-29T00:04:26.264Z,38.50
2018-12-29T00:06:55.783Z,38.00
2018-12-29T00:09:27.270Z,37.73
2018-12-29T00:11:56.762Z,37.67
2018-12-29T00:14:26.173Z,38.50
2018-12-29T00:16:55.703Z,39.27
2018-12-29T00:19:26.138Z,38.93
2018-12-29T00:22:02.412Z,38.37
2018-12-29T00:24:32.876Z,36.40
2018-12-29T00:27:02.369Z,39.07
2018-12-29T00:29:38.663Z,38.67
2018-12-29T00:32:08.182Z,40.13
2018-12-29T00:34:37.684Z,37.10
2018-12-29T00:37:07.220Z,39.83
2018-12-29T00:39:37.646Z,39.40
2018-12-29T00:42:07.150Z,38.53
2018-12-29T00:44:36.672Z,38.50
2018-12-29T00:47:06.107Z,39.10
2018-12-29T00:49:36.537Z,41.23
2018-12-29T00:52:11.897Z,40.77
2018-12-29T00:54:41.390Z,39.30
2018-12-29T00:57:10.775Z,38.77
2018-12-29T00:59:40.268Z,39.10
2018-12-29T01:02:09.766Z,41.10
2018-12-29T01:04:39.312Z,41.50
2018-12-29T01:07:08.784Z,41.03
2018-12-29T01:09:38.203Z,39.83
2018-12-29T01:12:07.699Z,42.30
2018-12-29T01:14:37.111Z,40.93
2018-12-29T01:17:12.669Z,41.40
2018-12-29T01:19:54.130Z,41.47
2018-12-29T01:22:23.704Z,40.40
2018-12-29T01:24:55.193Z,40.87
2018-12-29T01:27:24.685Z,40.67
2018-12-29T01:29:56.184Z,39.43
2018-12-29T01:32:25.711Z,40.30
2018-12-29T01:34:56.237Z,38.93
2018-12-29T01:37:29.713Z,40.50
2018-12-29T01:40:00.161Z,41.97
2018-12-29T01:42:34.780Z,40.17
2018-12-29T01:45:17.472Z,39.43
2018-12-29T01:47:51.180Z,41.67
2018-12-29T01:50:20.683Z,40.67
2018-12-29T01:52:55.218Z,42.50
2018-12-29T01:55:24.762Z,41.93
2018-12-29T01:58:00.452Z,40.17
2018-12-29T02:00:32.088Z,39.13
2018-12-29T02:03:01.531Z,41.07
2018-12-29T02:05:36.982Z,42.13
2018-12-29T02:08:06.409Z,40.07
2018-12-29T02:10:37.904Z,41.90
2018-12-29T02:13:07.410Z,40.17
2018-12-29T02:15:36.813Z,40.70
2018-12-29T02:18:11.358Z,43.20
2018-12-29T02:20:54.836Z,44.03
2018-12-29T02:23:24.320Z,43.37
2018-12-29T02:25:54.277Z,42.03
2018-12-29T02:28:23.753Z,43.30
2018-12-29T02:30:55.292Z,45.87
2018-12-29T02:33:26.830Z,45.40
2018-12-29T02:35:56.849Z,44.30
2018-12-29T02:38:28.309Z,44.43
2018-12-29T02:40:57.772Z,44.53
2018-12-29T02:43:36.442Z,42.17
2018-12-29T02:46:05.867Z,44.40
2018-12-29T02:48:35.360Z,43.03
2018-12-29T02:51:04.812Z,44.37
2018-12-29T02:53:36.364Z,43.83
2018-12-29T02:56:05.779Z,44.40
2018-12-29T02:58:42.276Z,45.37
2018-12-29T03:01:11.808Z,47.77
2018-12-29T03:03:51.191Z,43.90
2018-12-29T03:06:20.685Z,44.37
2018-12-29T03:08:51.228Z,45.30
2018-12-29T03:11:21.828Z,43.30
2018-12-29T03:13:51.205Z,43.93
2018-12-29T03:16:20.653Z,42.40
2018-12-29T03:19:00.294Z,43.83
2018-12-29T03:21:30.765Z,44.37
2018-12-29T03:24:01.211Z,44.40
2018-12-29T03:26:30.710Z,42.73
2018-12-29T03:29:04.226Z,43.63
2018-12-29T03:31:35.788Z,44.43
2018-12-29T03:34:05.198Z,43.83
2018-12-29T03:36:34.680Z,45.47
2018-12-29T03:39:09.419Z,44.30
2018-12-29T03:41:40.950Z,45.50
2018-12-29T03:44:12.427Z,44.80
2018-12-29T03:46:44.010Z,44.30
2018-12-29T03:49:15.425Z,47.57
2018-12-29T03:51:45.090Z,44.77
2018-12-29T03:54:15.588Z,45.50
2018-12-29T03:56:46.103Z,47.30
2018-12-29T03:59:15.518Z,47.87
2018-12-29T04:01:57.184Z,45.97
2018-12-29T04:04:32.623Z,46.70
2018-12-29T04:07:08.320Z,47.60
2018-12-29T04:09:38.837Z,49.03
2018-12-29T04:12:28.763Z,48.70
2018-12-29T04:15:04.096Z,48.67
2018-12-29T04:17:33.523Z,46.53
2018-12-29T04:20:05.063Z,44.93
2018-12-29T04:22:40.312Z,46.77
2018-12-29T04:25:15.999Z,44.33
2018-12-29T04:27:45.454Z,45.13
2018-12-29T04:30:15.963Z,46.17
2018-12-29T04:32:45.507Z,46.30
2018-12-29T04:35:23.016Z,43.03
2018-12-29T04:37:52.444Z,44.40
2018-12-29T04:40:21.913Z,43.93
2018-12-29T04:42:51.421Z,46.07
2018-12-29T04:45:27.181Z,43.40
2018-12-29T04:47:56.658Z,44.93
2018-12-29T04:50:32.134Z,43.73
2018-12-29T04:53:01.570Z,44.57
2018-12-29T04:55:33.143Z,43.37
2018-12-29T04:58:02.606Z,46.47
2018-12-29T05:00:44.120Z,44.87
2018-12-29T05:03:13.556Z,43.63
2018-12-29T05:05:48.304Z,44.77
2018-12-29T05:08:17.843Z,42.07
2018-12-29T05:10:47.378Z,45.00
2018-12-29T05:13:19.914Z,43.33
2018-12-29T05:15:51.427Z,45.63
2018-12-29T05:18:20.821Z,43.43
2018-12-29T05:20:50.360Z,44.63
2018-12-29T05:23:19.859Z,43.73
2018-12-29T05:25:49.393Z,43.13
2018-12-29T05:28:18.904Z,43.60
2018-12-29T05:30:49.365Z,41.63
2018-12-29T05:33:18.752Z,43.20
2018-12-29T05:35:55.000Z,43.93
2018-12-29T05:38:25.451Z,42.37
2018-12-29T05:40:56.902Z,43.17
2018-12-29T05:43:27.355Z,42.03
2018-12-29T05:46:05.761Z,41.40
2018-12-29T05:48:38.257Z,40.40
2018-12-29T05:51:14.514Z,40.23
2018-12-29T05:53:43.961Z,38.67
2018-12-29T05:56:13.498Z,39.63
2018-12-29T05:58:42.973Z,37.73
2018-12-29T06:01:12.406Z,38.47
2018-12-29T06:03:51.932Z,37.67
2018-12-29T06:06:21.388Z,38.67
2018-12-29T06:08:51.860Z,38.80
2018-12-29T06:11:21.330Z,36.83
2018-12-29T06:13:50.897Z,38.30
2018-12-29T06:16:27.500Z,34.47
2018-12-29T06:18:52.522Z,35.80
2018-12-29T06:21:21.978Z,35.17
2018-12-29T06:23:57.551Z,35.00
2018-12-29T06:26:27.132Z,34.83
2018-12-29T06:28:58.603Z,35.97
2018-12-29T06:31:28.070Z,35.50
2018-12-29T06:33:57.527Z,33.03
2018-12-29T06:36:26.983Z,32.23
2018-12-29T06:38:56.611Z,32.63
2018-12-29T06:41:28.124Z,31.13
2018-12-29T06:43:59.775Z,31.20
2018-12-29T06:46:35.070Z,30.53
2018-12-29T06:49:05.759Z,30.70
2018-12-29T06:51:47.515Z,31.33
2018-12-29T06:54:17.020Z,31.87
2018-12-29T06:56:57.924Z,30.23
2018-12-29T06:59:27.446Z,31.70
2018-12-29T07:01:57.390Z,31.10
2018-12-29T07:04:35.112Z,31.30
2018-12-29T07:07:04.610Z,30.37
2018-12-29T07:09:40.268Z,30.23
2018-12-29T07:12:10.687Z,31.77
2018-12-29T07:14:40.164Z,30.97
2018-12-29T07:17:10.594Z,31.17
2018-12-29T07:19:40.016Z,31.33
2018-12-29T07:22:15.410Z,31.87
2018-12-29T07:24:44.932Z,31.33
2018-12-29T07:27:15.393Z,32.03
2018-12-29T07:29:44.921Z,31.03
2018-12-29T07:32:14.351Z,31.37
2018-12-29T07:35:07.716Z,32.67
2018-12-29T07:37:48.071Z,31.13
2018-12-29T07:40:23.744Z,31.93
2018-12-29T07:42:55.173Z,31.60
2018-12-29T07:45:26.665Z,33.07
2018-12-29T07:47:56.172Z,32.97
2018-12-29T07:50:28.789Z,33.90
2018-12-29T07:52:58.346Z,31.33
2018-12-29T07:55:30.938Z,32.27
2018-12-29T07:58:02.440Z,32.33
2018-12-29T08:00:34.060Z,34.40
2018-12-29T08:03:10.389Z,34.60
2018-12-29T08:05:39.889Z,35.37
2018-12-29T08:08:10.377Z,33.63
2018-12-29T08:10:45.004Z,32.33
2018-12-29T08:13:14.551Z,31.73
2018-12-29T08:15:43.989Z,33.97
2018-12-29T08:18:13.420Z,32.33
2018-12-29T08:20:48.877Z,31.03
2018-12-29T08:23:18.295Z,32.90
2018-12-29T08:26:00.826Z,30.97
2018-12-29T08:28:31.272Z,32.60
2018-12-29T08:31:01.747Z,32.13
2018-12-29T08:33:43.100Z,31.43
2018-12-29T08:36:12.560Z,32.10
2018-12-29T08:38:42.032Z,33.23
2018-12-29T08:41:17.876Z,31.40
2018-12-29T08:43:47.436Z,33.70
2018-12-29T08:46:16.814Z,32.40
2018-12-29T08:48:47.172Z,32.27
2018-12-29T08:51:17.766Z,31.53
2018-12-29T08:53:50.445Z,32.83
2018-12-29T08:56:20.965Z,31.97
2018-12-29T08:58:51.426Z,32.83
2018-12-29T09:01:23.028Z,31.27
2018-12-29T09:03:53.534Z,30.70
2018-12-29T09:06:25.094Z,32.70
2018-12-29T09:08:56.598Z,31.47
2018-12-29T09:11:26.056Z,33.57
2018-12-29T09:13:55.561Z,33.90
2018-12-29T09:16:26.068Z,32.90
2018-12-29T09:19:27.310Z,32.43
2018-12-29T09:21:58.069Z,33.50
2018-12-29T09:24:30.637Z,32.97
2018-12-29T09:27:00.149Z,33.53
2018-12-29T09:29:30.561Z,33.37
2018-12-29T09:32:00.027Z,33.43
2018-12-29T09:34:36.356Z,33.53
2018-12-29T09:37:07.873Z,35.10
2018-12-29T09:39:38.418Z,33.97
2018-12-29T09:42:23.136Z,32.80
2018-12-29T09:44:54.813Z,34.87
2018-12-29T09:47:24.339Z,36.43
2018-12-29T09:49:54.831Z,35.50
2018-12-29T09:52:25.377Z,32.97
2018-12-29T09:55:00.766Z,33.07
2018-12-29T09:57:30.190Z,33.60
2018-12-29T10:00:03.711Z,33.93
2018-12-29T10:02:33.242Z,34.90
2018-12-29T10:05:05.238Z,36.70
2018-12-29T10:07:35.746Z,36.57
2018-12-29T10:10:11.276Z,36.80
2018-12-29T10:12:40.725Z,35.93
2018-12-29T10:15:10.209Z,36.67
2018-12-29T10:17:41.784Z,38.10
2018-12-29T10:20:15.300Z,35.97
2018-12-29T10:22:44.699Z,35.40
2018-12-29T10:25:14.176Z,36.20
2018-12-29T10:27:50.508Z,34.83
2018-12-29T10:30:19.953Z,34.43
2018-12-29T10:32:51.488Z,35.47
2018-12-29T10:35:23.032Z,37.77
2018-12-29T10:37:52.447Z,34.60
2018-12-29T10:40:22.962Z,35.87
2018-12-29T10:42:59.424Z,34.07
2018-12-29T10:45:28.929Z,34.27
2018-12-29T10:47:58.457Z,34.77
2018-12-29T10:50:27.962Z,31.93
2018-12-29T10:52:59.507Z,32.10
2018-12-29T10:55:34.871Z,31.30
2018-12-29T10:58:04.433Z,31.97
2018-12-29T11:00:36.005Z,29.60
2018-12-29T11:03:05.465Z,32.87
2018-12-29T11:05:34.961Z,30.93
2018-12-29T11:08:05.486Z,32.87
2018-12-29T11:10:35.975Z,33.63
2018-12-29T11:13:06.668Z,32.70
2018-12-29T11:15:36.132Z,32.90
2018-12-29T11:18:05.569Z,33.43
2018-12-29T11:20:36.065Z,32.83
2018-12-29T11:23:06.628Z,32.27
2018-12-29T11:25:37.095Z,35.17
2018-12-29T11:28:20.694Z,35.07
2018-12-29T11:30:51.171Z,33.47
2018-12-29T11:33:22.641Z,34.63
2018-12-29T11:35:56.749Z,35.20
2018-12-29T11:38:26.243Z,35.97
2018-12-29T11:40:55.704Z,35.43
2018-12-29T11:43:25.212Z,32.57
2018-12-29T11:45:55.665Z,34.30
2018-12-29T11:48:25.261Z,33.17
2018-12-29T11:51:00.514Z,35.77
2018-12-29T11:53:30.360Z,34.77
2018-12-29T11:55:59.846Z,34.70
2018-12-29T11:58:31.350Z,36.20
2018-12-29T12:01:07.014Z,35.10
2018-12-29T12:03:36.847Z,35.30
2018-12-29T12:06:06.400Z,36.57
2018-12-29T12:08:42.884Z,33.07
2018-12-29T12:11:12.275Z,34.87
2018-12-29T12:13:48.562Z,34.30
2018-12-29T12:16:18.056Z,33.13
2018-12-29T12:18:49.536Z,33.93
2018-12-29T12:21:19.000Z,34.90
2018-12-29T12:23:49.467Z,32.27
2018-12-29T12:26:24.076Z,33.80
2018-12-29T12:28:54.512Z,34.10
2018-12-29T12:31:25.534Z,33.57
2018-12-29T12:33:55.009Z,32.50
2018-12-29T12:36:26.483Z,32.30
2018-12-29T12:39:04.516Z,31.77
2018-12-29T12:41:35.407Z,30.53
2018-12-29T12:44:05.147Z,31.07
2018-12-29T12:46:34.698Z,30.23
2018-12-29T12:49:05.593Z,29.03
2018-12-29T12:51:40.902Z,28.80
2018-12-29T12:54:10.847Z,28.53
2018-12-29T12:56:41.328Z,28.77
2018-12-29T12:59:19.925Z,27.57
2018-12-29T13:01:59.144Z,28.20
2018-12-29T13:04:29.652Z,25.80
2018-12-29T13:06:59.375Z,26.20
2018-12-29T13:09:31.955Z,25.17
2018-12-29T13:12:01.377Z,25.43
2018-12-29T13:14:36.780Z,25.77
2018-12-29T13:17:06.696Z,25.30
2018-12-29T13:19:39.326Z,26.33
2018-12-29T13:22:17.705Z,25.57
2018-12-29T13:24:49.175Z,24.70
2018-12-29T13:27:18.661Z,25.00
2018-12-29T13:29:48.068Z,24.90
2018-12-29T13:32:17.572Z,24.77
2018-12-29T13:34:50.319Z,24.20
2018-12-29T13:37:20.930Z,26.17
2018-12-29T13:39:52.426Z,23.47
2018-12-29T13:42:40.035Z,23.10
2018-12-29T13:45:10.481Z,23.00
2018-12-29T13:47:39.896Z,25.57
2018-12-29T13:50:10.396Z,23.43
2018-12-29T13:52:40.891Z,23.77
2018-12-29T13:55:10.386Z,23.40
2018-12-29T13:57:39.789Z,24.40
2018-12-29T14:00:11.354Z,23.90
2018-12-29T14:02:40.888Z,22.90
2018-12-29T14:05:10.374Z,25.00
2018-12-29T14:07:41.080Z,22.97
2018-12-29T14:10:10.600Z,23.43
2018-12-29T14:12:40.140Z,23.13
2018-12-29T14:15:09.753Z,23.50
2018-12-29T14:17:46.349Z,25.37
2018-12-29T14:20:18.923Z,23.67
2018-12-29T14:22:48.405Z,23.70
2018-12-29T14:25:17.813Z,24.10
2018-12-29T14:27:49.294Z,23.70
2018-12-29T14:30:26.561Z,24.20
2018-12-29T14:32:56.065Z,23.57
2018-12-29T14:35:27.575Z,23.63
2018-12-29T14:37:57.056Z,24.30
2018-12-29T14:40:26.527Z,25.37
2018-12-29T14:42:58.148Z,23.40
2018-12-29T14:45:35.458Z,23.83
2018-12-29T14:48:07.008Z,24.40
2018-12-29T14:50:38.498Z,21.87
2018-12-29T14:53:08.949Z,23.93
2018-12-29T14:55:39.436Z,24.13
2018-12-29T14:58:11.039Z,22.90
2018-12-29T15:00:41.501Z,24.40
2018-12-29T15:03:11.025Z,23.63
2018-12-29T15:05:40.565Z,22.97
2018-12-29T15:08:10.158Z,22.90
2018-12-29T15:10:41.274Z,21.83
2018-12-29T15:13:13.178Z,23.83
2018-12-29T15:15:42.793Z,23.60
2018-12-29T15:18:16.171Z,21.27
2018-12-29T15:20:46.937Z,24.70
2018-12-29T15:23:17.981Z,23.07
2018-12-29T15:25:51.492Z,23.87
2018-12-29T15:28:20.985Z,26.83
2018-12-29T15:30:52.043Z,22.70
2018-12-29T15:33:22.590Z,21.87
2018-12-29T15:35:53.139Z,22.40
2018-12-29T15:38:24.654Z,21.63
2018-12-29T15:40:57.740Z,20.67
2018-12-29T15:43:29.253Z,23.93
2018-12-29T15:45:59.753Z,25.77
2018-12-29T15:48:30.083Z,24.93
2018-12-29T15:50:59.538Z,27.00
2018-12-29T15:53:29.078Z,25.73
2018-12-29T15:55:58.589Z,24.47
2018-12-29T15:58:30.062Z,20.77
2018-12-29T16:00:59.554Z,20.73
2018-12-29T16:03:35.060Z,22.67
2018-12-29T16:06:07.043Z,19.50
2018-12-29T16:08:36.783Z,22.63
2018-12-29T16:11:06.591Z,21.03
2018-12-29T16:13:36.346Z,21.47
2018-12-29T16:16:06.103Z,19.80
2018-12-29T16:18:35.961Z,20.23
2018-12-29T16:21:16.281Z,20.53
2018-12-29T16:23:45.749Z,39.90
2018-12-29T16:26:32.750Z,18.20
2018-12-29T16:29:02.222Z,17.60
2018-12-29T16:31:34.811Z,18.53
2018-12-29T16:34:10.414Z,17.40
2018-12-29T16:36:39.925Z,17.13
2018-12-29T16:39:11.451Z,16.53
2018-12-29T16:41:55.029Z,15.23
2018-12-29T16:44:24.498Z,14.13
2018-12-29T16:47:00.412Z,13.40
2018-12-29T16:49:47.683Z,12.20
2018-12-29T16:52:17.511Z,9.73
2018-12-29T16:54:49.070Z,10.53
2018-12-29T16:57:25.882Z,10.90
2018-12-29T16:59:56.695Z,11.13
2018-12-29T17:02:26.162Z,11.33
2018-12-29T17:04:55.702Z,10.47
2018-12-29T17:07:30.627Z,12.83
2018-12-29T17:10:00.248Z,12.73
2018-12-29T17:12:29.770Z,13.67
2018-12-29T17:15:00.247Z,13.80
2018-12-29T17:17:29.963Z,15.17
2018-12-29T17:19:59.450Z,16.83
2018-12-29T17:22:30.458Z,15.37
2018-12-29T17:24:59.892Z,17.13
2018-12-29T17:27:30.375Z,18.27
2018-12-29T17:30:00.158Z,18.00
2018-12-29T17:32:30.688Z,21.30
2018-12-29T17:35:02.247Z,19.13
2018-12-29T17:37:37.624Z,21.30
2018-12-29T17:40:09.102Z,23.53
2018-12-29T17:42:41.879Z,24.73
2018-12-29T17:45:11.562Z,24.77
2018-12-29T17:47:43.002Z,24.97
2018-12-29T17:50:15.706Z,27.37
2018-12-29T17:52:45.168Z,23.30
2018-12-29T17:55:23.052Z,26.23
2018-12-29T17:57:59.863Z,32.97
2018-12-29T18:00:30.313Z,24.10
2018-12-29T18:02:59.888Z,26.93
2018-12-29T18:05:35.127Z,26.50
2018-12-29T18:08:07.325Z,27.17
2018-12-29T18:10:38.843Z,27.57
2018-12-29T18:13:08.318Z,27.97
2018-12-29T18:15:40.876Z,25.23
2018-12-29T18:18:12.506Z,30.27
2018-12-29T18:20:42.159Z,30.10
2018-12-29T18:23:20.889Z,30.10
2018-12-29T18:25:50.301Z,31.57
2018-12-29T18:28:19.771Z,30.87
2018-12-29T18:30:50.377Z,32.73
2018-12-29T18:33:21.017Z,30.47
2018-12-29T18:35:51.485Z,32.53
2018-12-29T18:38:29.193Z,35.00
2018-12-29T18:41:00.621Z,35.33
2018-12-29T18:43:34.213Z,38.40
2018-12-29T18:46:16.050Z,36.40
2018-12-29T18:48:46.538Z,38.20
2018-12-29T18:51:17.960Z,39.50
2018-12-29T18:53:47.766Z,37.20
2018-12-29T18:56:30.377Z,38.30
2018-12-29T18:59:03.856Z,41.70
2018-12-29T19:01:34.549Z,42.63
2018-12-29T19:04:04.140Z,32.53
2018-12-29T19:06:35.052Z,38.30
2018-12-29T19:09:06.927Z,39.80
2018-12-29T19:11:43.156Z,46.40
2018-12-29T19:14:14.058Z,44.53
2018-12-29T19:16:43.488Z,45.17
2018-12-29T19:19:19.978Z,47.57
2018-12-29T19:21:49.453Z,46.50
2018-12-29T19:24:21.008Z,46.43
2018-12-29T19:26:50.451Z,44.77
2018-12-29T19:29:22.018Z,46.83
2018-12-29T19:31:53.551Z,46.60
2018-12-29T19:34:27.450Z,50.27
2018-12-29T19:37:00.514Z,49.00
2018-12-29T19:39:32.485Z,49.23
2018-12-29T19:42:12.822Z,43.47
2018-12-29T19:44:43.293Z,45.83
2018-12-29T19:47:18.950Z,48.97
2018-12-29T19:49:53.581Z,42.87
2018-12-29T19:52:22.616Z,49.03
2018-12-29T19:54:55.175Z,49.70
2018-12-29T19:57:25.175Z,47.83
2018-12-29T19:59:54.605Z,43.77
2018-12-29T20:02:27.643Z,46.77
2018-12-29T20:05:16.449Z,42.77
2018-12-29T20:07:45.869Z,42.63
2018-12-29T20:10:15.359Z,46.00
2018-12-29T20:12:46.778Z,44.53
2018-12-29T20:15:18.345Z,44.10
2018-12-29T20:17:47.903Z,42.33
2018-12-29T20:20:17.391Z,41.57
2018-12-29T20:22:46.939Z,39.07
2018-12-29T20:25:18.403Z,39.23
2018-12-29T20:27:49.236Z,39.67
2018-12-29T20:30:22.711Z,39.30
2018-12-29T20:32:58.916Z,37.53
2018-12-29T20:35:31.546Z,33.07
2018-12-29T20:38:01.082Z,33.23
2018-12-29T20:40:35.780Z,26.57
2018-12-29T20:43:07.262Z,25.80
2018-12-29T20:45:36.922Z,26.57
2018-12-29T20:48:06.771Z,25.40
2018-12-29T20:50:42.216Z,25.17
2018-12-29T20:53:27.014Z,22.70
2018-12-29T20:55:57.468Z,17.47
2018-12-29T20:58:26.985Z,18.50
2018-12-29T21:00:57.543Z,15.87
2018-12-29T21:03:27.025Z,15.10
2018-12-29T21:05:56.423Z,14.83
2018-12-29T21:08:26.953Z,9.50
2018-12-29T21:10:56.363Z,8.50
2018-12-29T21:13:26.196Z,7.40
2018-12-29T21:15:57.988Z,8.43
2018-12-29T21:18:28.483Z,7.90
2018-12-29T21:21:03.934Z,8.63
2018-12-29T21:23:34.695Z,9.27
2018-12-29T21:26:05.232Z,11.30
2018-12-29T21:28:34.929Z,10.00
2018-12-29T21:31:04.628Z,10.90
2018-12-29T21:33:34.585Z,11.40
2018-12-29T21:36:05.112Z,9.20
2018-12-29T21:38:36.609Z,8.77
2018-12-29T21:41:06.099Z,7.67
2018-12-29T21:43:35.635Z,7.13
2018-12-29T21:46:06.545Z,4.60
2018-12-29T21:48:44.093Z,5.40
2018-12-29T21:51:14.612Z,5.40
2018-12-29T21:53:49.391Z,4.53
2018-12-29T21:56:20.135Z,4.67
2018-12-29T21:59:01.113Z,3.40
2018-12-29T22:01:30.560Z,4.13
2018-12-29T22:04:00.025Z,3.30
2018-12-29T22:06:29.522Z,3.60
2018-12-29T22:08:59.221Z,3.97
2018-12-29T22:11:30.057Z,3.63
2018-12-29T22:13:59.549Z,3.10
2018-12-29T22:16:30.051Z,3.57
2018-12-29T22:18:59.607Z,3.20
2018-12-29T22:21:29.069Z,3.73
2018-12-29T22:23:58.568Z,3.97
2018-12-29T22:26:29.275Z,3.77
2018-12-29T22:28:58.793Z,3.20
2018-12-29T22:31:29.290Z,3.60
2018-12-29T22:33:58.845Z,3.77
2018-12-29T22:36:29.279Z,3.23
2018-12-29T22:39:00.755Z,3.60
2018-12-29T22:41:31.371Z,3.87
2018-12-29T22:44:01.208Z,3.60
2018-12-29T22:46:30.721Z,3.70
2018-12-29T22:49:01.186Z,3.77
2018-12-29T22:51:30.747Z,4.00
2018-12-29T22:54:04.206Z,3.67
2018-12-29T22:56:33.848Z,3.50
2018-12-29T22:59:03.318Z,3.30
2018-12-29T23:01:32.819Z,3.77
2018-12-29T23:04:02.270Z,4.30
2018-12-29T23:06:31.774Z,3.53
2018-12-29T23:09:05.988Z,3.80
2018-12-29T23:11:38.590Z,4.27
2018-12-29T23:14:08.192Z,4.60
2018-12-29T23:16:38.698Z,4.63
2018-12-29T23:19:08.412Z,3.73
2018-12-29T23:21:37.970Z,3.80
2018-12-29T23:24:07.729Z,4.07
2018-12-29T23:26:37.291Z,4.23
2018-12-29T23:29:07.133Z,4.27
2018-12-29T23:31:37.770Z,3.40
2018-12-29T23:34:07.344Z,5.37
2018-12-29T23:36:36.836Z,3.40
2018-12-29T23:39:06.525Z,3.63
2018-12-29T23:41:38.108Z,3.87
2018-12-29T23:44:07.550Z,3.63
2018-12-29T23:46:37.454Z,3.70
2018-12-29T23:49:18.026Z,3.40
2018-12-29T23:51:47.545Z,3.80
2018-12-29T23:54:17.017Z,3.77
2018-12-29T23:56:52.694Z,4.00
2018-12-29T23:59:24.296Z,4.00
